Time;durP1;ratioP1;P1;durP2;ratioP2;P2;SDS_P1;SDS_P2;PMS_P1;PMS_P2;Temp;Humidity;BMP_temperature;BMP_pressure;BME280_temperature;BME280_humidity;BME280_pressure;Samples;Min_cycle;Max_cycle;Signal;HPM_P1;HPM_P2
2022/09/08 00:00:00;;;;;;;27.00;21.73;;;14.10;99.90;;;;;;5050144;28;20497;-43
2022/09/08 00:02:25;;;;;;;26.00;22.48;;;14.00;99.90;;;;;;5049993;28;20043;-42
2022/09/08 00:04:51;;;;;;;29.33;23.20;;;14.00;99.90;;;;;;5049628;28;20387;-43
2022/09/08 00:07:18;;;;;;;28.05;24.23;;;13.90;99.90;;;;;;5050257;28;20052;-43
2022/09/08 00:09:44;;;;;;;27.50;22.83;;;13.90;99.90;;;;;;5050112;28;20085;-43
2022/09/08 00:12:12;;;;;;;32.10;23.02;;;13.90;99.90;;;;;;5049564;28;20491;-43
2022/09/08 00:14:38;;;;;;;29.00;24.67;;;13.90;99.90;;;;;;5049891;28;20049;-43
2022/09/08 00:17:04;;;;;;;30.58;26.90;;;13.80;99.90;;;;;;5049690;28;20051;-43
2022/09/08 00:19:29;;;;;;;40.60;31.08;;;13.80;99.90;;;;;;5050097;28;20128;-43
2022/09/08 00:21:56;;;;;;;38.15;31.02;;;13.90;99.90;;;;;;5049796;28;20045;-42
2022/09/08 00:24:22;;;;;;;36.90;31.25;;;14.00;99.90;;;;;;5048835;28;20048;-43
2022/09/08 00:26:48;;;;;;;41.90;32.45;;;14.00;99.90;;;;;;5049663;28;20055;-43
2022/09/08 00:29:13;;;;;;;36.35;31.27;;;14.10;99.90;;;;;;5049319;28;20479;-42
2022/09/08 00:31:40;;;;;;;40.17;32.08;;;14.00;99.90;;;;;;5049837;28;20145;-43
2022/09/08 00:34:07;;;;;;;41.80;32.42;;;14.00;99.90;;;;;;5049634;28;20398;-42
2022/09/08 00:36:33;;;;;;;40.05;31.92;;;14.00;99.90;;;;;;5050033;28;20043;-42
2022/09/08 00:39:00;;;;;;;42.17;34.15;;;14.00;99.90;;;;;;5050045;28;20076;-43
2022/09/08 00:41:27;;;;;;;44.00;33.75;;;14.00;99.90;;;;;;5049671;28;20510;-43
2022/09/08 00:44:00;;;;;;;46.50;35.80;;;14.00;99.90;;;;;;5049420;28;20056;-43
2022/09/08 00:46:32;;;;;;;44.30;36.75;;;14.00;99.90;;;;;;5049374;28;20095;-42
2022/09/08 00:49:20;;;;;;;;;;;14.00;99.90;;;;;;5049554;28;20041;-42
2022/09/08 00:51:50;;;;;;;51.35;38.95;;;14.10;99.90;;;;;;5049668;28;19924;-43
2022/09/08 00:54:17;;;;;;;49.65;38.25;;;14.10;99.90;;;;;;5049441;28;20049;-42
2022/09/08 00:56:45;;;;;;;50.78;40.10;;;14.10;99.90;;;;;;5049414;28;20037;-42
2022/09/08 00:59:14;;;;;;;51.53;38.20;;;14.20;99.90;;;;;;5048615;28;20033;-43
2022/09/08 01:01:40;;;;;;;47.28;37.75;;;14.30;99.90;;;;;;5049182;28;20108;-43
2022/09/08 01:04:06;;;;;;;57.53;41.90;;;14.00;99.90;;;;;;5048716;28;20045;-43
2022/09/08 01:12:44;;;;;;;57.50;42.90;;;14.00;99.90;;;;;;5048689;28;20091;-42
2022/09/08 01:15:15;;;;;;;65.80;45.33;;;14.00;99.90;;;;;;5048346;28;20483;-43
2022/09/08 01:17:41;;;;;;;70.80;45.97;;;14.00;99.90;;;;;;5048578;28;20041;-43
2022/09/08 01:20:08;;;;;;;69.75;48.28;;;14.10;99.90;;;;;;5048513;28;20063;-42
2022/09/08 01:22:47;;;;;;;65.15;49.53;;;14.10;99.90;;;;;;5048231;28;20048;-43
2022/09/08 01:25:31;;;;;;;69.95;49.97;;;14.20;99.90;;;;;;5048213;28;20522;-42
2022/09/08 01:28:22;;;;;;;64.03;49.42;;;14.30;99.90;;;;;;5048362;28;20442;-42
2022/09/08 01:30:50;;;;;;;65.65;51.72;;;14.40;99.90;;;;;;5047978;28;20140;-43
2022/09/08 01:33:16;;;;;;;68.28;51.00;;;14.40;99.90;;;;;;5048107;28;20103;-42
2022/09/08 01:35:43;;;;;;;66.93;52.08;;;14.40;99.90;;;;;;5047835;28;20047;-43
2022/09/08 01:38:10;;;;;;;65.97;52.55;;;14.40;99.90;;;;;;5046214;28;20455;-42
2022/09/08 01:40:38;;;;;;;70.32;53.65;;;14.50;99.90;;;;;;5048301;28;20040;-43
2022/09/08 01:43:08;;;;;;;65.43;51.35;;;14.50;99.90;;;;;;5047894;28;20052;-43
2022/09/08 01:45:35;;;;;;;72.40;52.10;;;14.50;99.90;;;;;;5047950;28;20483;-44
2022/09/08 01:48:01;;;;;;;68.85;51.55;;;14.60;99.90;;;;;;5048250;28;20037;-43
2022/09/08 01:50:27;;;;;;;66.93;51.97;;;14.60;99.90;;;;;;5047955;28;20041;-42
2022/09/08 01:52:52;;;;;;;70.13;52.53;;;14.60;99.90;;;;;;5048077;28;20029;-43
2022/09/08 01:55:18;;;;;;;66.40;53.45;;;14.70;99.90;;;;;;5047721;28;20120;-43
2022/09/08 01:57:44;;;;;;;68.35;52.47;;;15.10;99.90;;;;;;5048412;28;20555;-44
2022/09/08 02:00:10;;;;;;;71.22;55.17;;;15.00;99.90;;;;;;5047477;28;20368;-44
2022/09/08 02:02:36;;;;;;;67.20;51.58;;;14.90;99.90;;;;;;5048111;28;20041;-43
2022/09/08 02:05:02;;;;;;;64.07;51.70;;;14.90;99.90;;;;;;5047426;28;20055;-43
2022/09/08 02:07:28;;;;;;;61.67;50.72;;;14.90;99.90;;;;;;5047636;28;20152;-43
2022/09/08 02:09:53;;;;;;;61.25;51.00;;;15.30;99.90;;;;;;5047409;28;20120;-43
2022/09/08 02:12:20;;;;;;;68.07;53.63;;;15.00;99.90;;;;;;5047554;28;20110;-43
2022/09/08 02:14:45;;;;;;;63.63;51.83;;;15.00;99.90;;;;;;5047820;28;20391;-43
2022/09/08 02:17:11;;;;;;;61.58;52.40;;;15.00;99.90;;;;;;5047624;28;20037;-45
2022/09/08 02:19:37;;;;;;;64.75;53.17;;;15.10;99.90;;;;;;5047787;28;20538;-43
2022/09/08 02:22:03;;;;;;;68.30;52.13;;;15.20;99.90;;;;;;5047532;28;20044;-43
2022/09/08 02:24:29;;;;;;;65.32;51.92;;;15.10;99.90;;;;;;5047494;28;20053;-44
2022/09/08 02:26:55;;;;;;;65.78;52.60;;;15.10;99.90;;;;;;5047811;28;20049;-43
2022/09/08 02:29:21;;;;;;;60.65;51.45;;;15.10;99.90;;;;;;5046329;28;20388;-43
2022/09/08 02:31:47;;;;;;;70.97;52.20;;;15.10;99.90;;;;;;5048033;28;20122;-43
2022/09/08 02:34:13;;;;;;;63.85;52.10;;;15.20;99.90;;;;;;5047794;28;20045;-42
2022/09/08 02:36:38;;;;;;;62.70;51.83;;;15.20;99.90;;;;;;5047564;28;20045;-43
2022/09/08 02:39:04;;;;;;;77.05;53.80;;;15.20;99.90;;;;;;5047261;28;20087;-43
2022/09/08 02:41:30;;;;;;;68.72;52.35;;;15.20;99.90;;;;;;5047402;28;20380;-43
2022/09/08 02:43:56;;;;;;;70.95;52.15;;;15.20;99.90;;;;;;5047472;28;20037;-43
2022/09/08 02:46:22;;;;;;;74.63;56.88;;;15.20;99.90;;;;;;5047377;28;20456;-42
2022/09/08 02:48:48;;;;;;;63.97;51.28;;;15.20;99.90;;;;;;5050665;28;20120;-43
2022/09/08 02:51:17;;;;;;;64.25;51.83;;;15.20;99.90;;;;;;5051369;28;20048;-43
2022/09/08 02:53:43;;;;;;;61.47;51.22;;;15.20;99.90;;;;;;5052058;28;20048;-45
2022/09/08 02:56:09;;;;;;;68.72;51.63;;;15.20;99.90;;;;;;5051380;28;20037;-44
2022/09/08 02:58:36;;;;;;;62.15;51.38;;;15.20;99.90;;;;;;5051494;28;20040;-43
2022/09/08 03:01:03;;;;;;;62.33;51.35;;;15.20;99.90;;;;;;5051748;28;20036;-43
2022/09/08 03:03:28;;;;;;;62.25;51.55;;;15.50;99.90;;;;;;5051491;28;20063;-43
2022/09/08 03:05:54;;;;;;;69.35;51.60;;;15.20;99.90;;;;;;5051623;28;20483;-43
2022/09/08 03:08:21;;;;;;;69.75;52.30;;;15.20;99.90;;;;;;5049536;28;20394;-43
2022/09/08 03:10:51;;;;;;;72.07;53.72;;;15.20;99.90;;;;;;5051011;28;20056;-43
2022/09/08 03:13:17;;;;;;;64.85;50.58;;;15.20;99.90;;;;;;5050466;28;20090;-43
2022/09/08 03:15:43;;;;;;;67.10;49.88;;;15.40;99.90;;;;;;5050909;28;20446;-43
2022/09/08 03:18:10;;;;;;;74.65;52.50;;;15.20;99.90;;;;;;5050761;28;20049;-42
2022/09/08 03:20:37;;;;;;;66.22;50.53;;;15.20;99.90;;;;;;5051179;28;20124;-43
2022/09/08 03:23:03;;;;;;;76.70;52.88;;;15.20;99.90;;;;;;5051226;28;20037;-43
2022/09/08 03:25:29;;;;;;;67.50;51.00;;;15.20;99.90;;;;;;5050748;28;20098;-43
2022/09/08 03:27:55;;;;;;;68.40;52.13;;;15.20;99.90;;;;;;5050957;28;20033;-42
2022/09/08 03:30:21;;;;;;;67.75;52.92;;;15.20;99.90;;;;;;5050289;28;20080;-42
2022/09/08 03:32:48;;;;;;;69.70;52.47;;;15.50;99.90;;;;;;5050827;28;20501;-44
2022/09/08 03:35:16;;;;;;;69.07;53.25;;;15.20;99.90;;;;;;5050821;28;20045;-43
2022/09/08 03:37:42;;;;;;;69.78;52.40;;;15.20;99.90;;;;;;5049232;28;20045;-42
2022/09/08 03:40:11;;;;;;;70.82;54.42;;;15.10;99.90;;;;;;5050730;28;20055;-43
2022/09/08 03:42:39;;;;;;;77.88;55.42;;;15.00;99.90;;;;;;5050402;28;20122;-42
2022/09/08 03:45:08;;;;;;;69.43;52.55;;;15.30;99.90;;;;;;5050448;28;20044;-42
2022/09/08 03:47:34;;;;;;;75.78;54.55;;;15.10;99.90;;;;;;5050606;28;20040;-42
2022/09/08 03:50:00;;;;;;;74.50;54.92;;;15.10;99.90;;;;;;5050271;28;20055;-43
2022/09/08 03:52:26;;;;;;;79.03;55.85;;;15.00;99.90;;;;;;5050074;28;20045;-43
2022/09/08 03:54:52;;;;;;;76.80;55.40;;;15.10;99.90;;;;;;5050031;28;20124;-43
2022/09/08 03:57:24;;;;;;;79.30;56.10;;;15.00;99.90;;;;;;5049422;28;20044;-42
2022/09/08 03:59:51;;;;;;;79.72;57.60;;;15.10;99.90;;;;;;5048347;28;20051;-43
2022/09/08 04:02:17;;;;;;;73.00;56.08;;;15.10;99.90;;;;;;5050136;28;20045;-43
2022/09/08 04:04:47;;;;;;;75.97;59.55;;;15.10;99.90;;;;;;5050010;28;20483;-43
2022/09/08 04:07:12;;;;;;;82.13;57.55;;;15.10;99.90;;;;;;5049890;28;20041;-44
2022/09/08 04:09:38;;;;;;;80.88;59.25;;;15.10;99.90;;;;;;5049732;28;20646;-43
2022/09/08 04:12:05;;;;;;;87.10;59.70;;;15.10;99.90;;;;;;5049629;28;20368;-43
2022/09/08 04:14:32;;;;;;;86.55;61.67;;;15.10;99.90;;;;;;5049907;28;20044;-43
2022/09/08 04:16:58;;;;;;;92.57;61.45;;;15.10;99.90;;;;;;5049628;28;20045;-43
2022/09/08 04:19:24;;;;;;;90.05;61.85;;;15.20;99.90;;;;;;5049255;28;20130;-43
2022/09/08 04:21:49;;;;;;;87.90;60.95;;;15.00;99.90;;;;;;5049783;28;20043;-43
2022/09/08 04:24:15;;;;;;;88.50;61.63;;;15.00;99.90;;;;;;5049382;28;20044;-42
2022/09/08 04:26:41;;;;;;;90.22;60.80;;;15.60;99.90;;;;;;5049540;28;20076;-44
2022/09/08 04:29:07;;;;;;;92.63;60.47;;;15.00;99.90;;;;;;5049447;28;20474;-44
2022/09/08 04:31:35;;;;;;;89.93;63.22;;;15.10;99.90;;;;;;5049743;28;20049;-43
2022/09/08 04:34:02;;;;;;;91.50;62.20;;;15.10;99.90;;;;;;5049367;28;20053;-44
2022/09/08 04:36:28;;;;;;;83.35;59.38;;;15.10;99.90;;;;;;5047687;28;20107;-42
2022/09/08 04:38:55;;;;;;;88.45;61.28;;;15.10;99.90;;;;;;5049145;28;20033;-42
2022/09/08 04:41:20;;;;;;;90.90;64.57;;;15.10;99.90;;;;;;5048805;28;20045;-43
2022/09/08 04:43:46;;;;;;;87.75;62.55;;;15.20;99.90;;;;;;5049099;28;20557;-43
2022/09/08 04:46:14;;;;;;;86.88;61.75;;;15.10;99.90;;;;;;5030605;28;20095;-42
2022/09/08 04:48:41;;;;;;;86.13;64.13;;;15.10;99.90;;;;;;5049341;28;20033;-43
2022/09/08 04:51:10;;;;;;;84.32;61.05;;;15.10;99.90;;;;;;5048772;28;20561;-43
2022/09/08 04:53:36;;;;;;;85.65;61.45;;;15.10;99.90;;;;;;5048703;28;20055;-43
2022/09/08 04:56:03;;;;;;;84.35;60.70;;;15.10;99.90;;;;;;5048840;28;20029;-43
2022/09/08 04:58:31;;;;;;;91.25;62.67;;;15.10;99.90;;;;;;5048571;28;20522;-42
2022/09/08 05:01:08;;;;;;;88.32;61.47;;;15.30;99.90;;;;;;5048580;28;20439;-44
2022/09/08 05:03:34;;;;;;;96.85;63.30;;;14.90;99.90;;;;;;5048968;28;20040;-43
2022/09/08 05:06:09;;;;;;;89.43;61.97;;;14.90;99.90;;;;;;5049000;28;20395;-44
2022/09/08 05:08:35;;;;;;;90.10;61.75;;;14.80;99.90;;;;;;5046987;28;20036;-44
2022/09/08 05:11:01;;;;;;;93.07;61.95;;;14.90;99.90;;;;;;5048339;28;20040;-43
2022/09/08 05:13:27;;;;;;;91.10;62.17;;;15.00;99.90;;;;;;5048520;28;20048;-43
2022/09/08 05:16:04;;;;;;;90.97;61.08;;;14.70;99.90;;;;;;5048742;28;20156;-43
2022/09/08 05:18:29;;;;;;;96.25;61.03;;;14.70;99.90;;;;;;5048212;28;20570;-43
2022/09/08 05:20:55;;;;;;;94.25;61.67;;;14.80;99.90;;;;;;5048493;28;20120;-43
2022/09/08 05:23:21;;;;;;;99.47;64.80;;;14.70;99.90;;;;;;5048594;28;20056;-44
2022/09/08 05:25:56;;;;;;;101.68;64.35;;;14.80;99.90;;;;;;5048177;28;20041;-43
2022/09/08 05:28:21;;;;;;;95.68;63.25;;;14.80;99.90;;;;;;5048596;28;20052;-42
2022/09/08 05:30:47;;;;;;;96.93;65.28;;;14.80;99.90;;;;;;5048051;28;20047;-43
2022/09/08 05:33:13;;;;;;;89.07;63.15;;;14.80;99.90;;;;;;5048781;28;20045;-43
2022/09/08 05:35:38;;;;;;;86.68;62.08;;;14.80;99.90;;;;;;5048265;28;20044;-43
2022/09/08 05:38:04;;;;;;;98.05;66.22;;;14.90;99.90;;;;;;5048247;28;20090;-42
2022/09/08 05:40:29;;;;;;;93.10;64.38;;;14.90;99.90;;;;;;5047932;28;20123;-43
2022/09/08 05:42:55;;;;;;;99.47;65.55;;;15.00;99.90;;;;;;5047844;28;20072;-43
2022/09/08 05:45:21;;;;;;;90.60;62.67;;;15.00;99.90;;;;;;5047993;28;20095;-43
2022/09/08 05:47:46;;;;;;;94.35;63.33;;;15.00;99.90;;;;;;5048143;28;20076;-44
2022/09/08 05:50:12;;;;;;;95.13;64.03;;;15.00;99.90;;;;;;5047666;28;20069;-43
2022/09/08 05:52:37;;;;;;;92.53;63.78;;;15.10;99.90;;;;;;5047568;28;20045;-43
2022/09/08 05:55:03;;;;;;;102.10;66.43;;;15.10;99.90;;;;;;5047131;28;20052;-43
2022/09/08 05:57:29;;;;;;;91.32;62.63;;;15.10;99.90;;;;;;5047062;28;20045;-42
2022/09/08 05:59:55;;;;;;;89.57;62.05;;;15.10;99.90;;;;;;5047245;28;20055;-43
2022/09/08 06:02:20;;;;;;;88.03;61.08;;;15.20;99.90;;;;;;5047398;28;20075;-44
2022/09/08 06:04:46;;;;;;;90.03;62.35;;;15.40;99.90;;;;;;5047383;28;20045;-43
2022/09/08 06:07:11;;;;;;;88.38;62.20;;;15.20;99.90;;;;;;5047796;28;20063;-43
2022/09/08 06:09:37;;;;;;;101.80;61.35;;;15.30;99.90;;;;;;5047503;28;20059;-42
2022/09/08 06:12:03;;;;;;;95.82;60.70;;;15.30;99.90;;;;;;5047211;28;20552;-43
2022/09/08 06:14:28;;;;;;;85.63;59.30;;;15.30;99.90;;;;;;5045957;28;20040;-43
2022/09/08 06:16:54;;;;;;;85.68;60.20;;;15.30;99.90;;;;;;5047519;28;20484;-43
2022/09/08 06:19:20;;;;;;;87.05;60.42;;;15.30;99.90;;;;;;5046034;28;20061;-43
2022/09/08 06:21:45;;;;;;;92.57;61.63;;;15.40;99.90;;;;;;5045113;28;20520;-43
2022/09/08 06:24:14;;;;;;;85.10;58.45;;;15.40;99.90;;;;;;5047148;28;20049;-43
2022/09/08 06:27:10;;;;;;;82.65;58.92;;;15.40;99.90;;;;;;5047139;28;20045;-43
2022/09/08 06:29:55;;;;;;;87.28;57.60;;;15.40;99.90;;;;;;5047008;28;20044;-43
2022/09/08 06:32:48;;;;;;;75.22;54.40;;;15.50;99.90;;;;;;5047565;28;20055;-42
2022/09/08 06:35:39;;;;;;;81.40;58.47;;;15.50;99.90;;;;;;5046950;28;20049;-43
2022/09/08 06:38:11;;;;;;;74.25;59.28;;;15.50;99.90;;;;;;5047185;28;20040;-43
2022/09/08 06:40:51;;;;;;;;;;;15.60;99.90;;;;;;5047565;28;20051;-43
2022/09/08 06:43:51;;;;;;;84.65;61.20;;;15.70;99.90;;;;;;5046914;28;19921;-43
2022/09/08 06:46:27;;;;;;;83.50;59.08;;;15.70;99.90;;;;;;5046477;28;20049;-44
2022/09/08 06:48:54;;;;;;;82.57;60.80;;;15.70;99.90;;;;;;5046783;28;20040;-42
2022/09/08 06:51:38;;;;;;;83.65;62.15;;;15.70;99.90;;;;;;5046851;28;20069;-42
2022/09/08 06:54:10;;;;;;;78.28;60.92;;;15.70;99.90;;;;;;5046990;28;20056;-45
2022/09/08 06:56:41;;;;;;;88.28;65.47;;;15.80;99.90;;;;;;5045910;28;20530;-43
2022/09/08 06:59:17;;;;;;;76.28;62.13;;;15.80;99.90;;;;;;5047311;28;20134;-46
2022/09/08 07:02:07;;;;;;;77.50;62.50;;;15.80;99.90;;;;;;5047211;28;20100;-44
2022/09/08 07:05:11;;;;;;;85.95;63.72;;;15.80;99.90;;;;;;5047199;28;20734;-45
2022/09/08 07:08:01;;;;;;;93.30;63.03;;;15.90;99.90;;;;;;5004299;28;20575;-44
2022/09/08 07:10:29;;;;;;;89.93;64.28;;;15.90;99.90;;;;;;5044559;28;20061;-44
2022/09/08 07:13:17;;;;;;;98.32;66.53;;;15.80;99.90;;;;;;5045358;28;20051;-44
2022/09/08 07:15:49;;;;;;;118.78;67.78;;;15.90;99.90;;;;;;5044702;28;20063;-43
2022/09/08 07:18:36;;;;;;;94.60;66.30;;;15.90;99.90;;;;;;5046882;28;20060;-45
2022/09/08 07:21:05;;;;;;;91.18;62.30;;;15.80;99.90;;;;;;5046906;28;20136;-43
2022/09/08 07:23:37;;;;;;;82.85;59.08;;;15.70;99.90;;;;;;5047101;28;20076;-43
2022/09/08 07:26:31;;;;;;;97.97;63.50;;;15.80;99.90;;;;;;5046268;28;20052;-44
2022/09/08 07:29:17;;;;;;;128.63;69.18;;;15.80;99.90;;;;;;5046734;28;20426;-42
2022/09/08 07:31:47;;;;;;;208.15;76.68;;;15.80;99.90;;;;;;5046322;28;20052;-42
2022/09/08 07:34:19;;;;;;;167.82;72.05;;;15.80;99.90;;;;;;5049073;28;20045;-42
2022/09/08 07:37:21;;;;;;;208.88;76.80;;;15.80;99.90;;;;;;5048841;28;20032;-42
2022/09/08 07:39:53;;;;;;;193.30;73.25;;;15.80;99.90;;;;;;5048673;28;20045;-42
2022/09/08 07:42:19;;;;;;;95.22;56.63;;;15.80;99.90;;;;;;5050560;28;20334;-42
2022/09/08 07:44:46;;;;;;;153.98;68.25;;;15.80;99.90;;;;;;5050180;28;20044;-43
2022/09/08 07:47:21;;;;;;;167.93;65.45;;;15.80;99.90;;;;;;5050086;28;20051;-42
2022/09/08 07:49:57;;;;;;;151.38;61.05;;;15.80;99.90;;;;;;5050199;28;20102;-42
2022/09/08 07:53:00;;;;;;;131.77;59.33;;;16.10;99.90;;;;;;5049476;28;20110;-42
2022/09/08 07:55:41;;;;;;;74.32;47.28;;;15.90;99.90;;;;;;5050278;28;20041;-43
2022/09/08 07:58:28;;;;;;;70.03;45.75;;;15.90;99.90;;;;;;5050571;28;20430;-42
2022/09/08 08:01:15;;;;;;;99.80;51.70;;;15.90;99.90;;;;;;5049875;28;20632;-43
2022/09/08 08:04:24;;;;;;;118.38;53.55;;;16.00;99.90;;;;;;5050302;28;20056;-43
2022/09/08 08:06:52;;;;;;;76.55;48.95;;;16.00;99.90;;;;;;5044359;28;20689;-43
2022/09/08 08:09:32;;;;;;;82.90;51.38;;;16.10;99.90;;;;;;5050024;28;20053;-42
2022/09/08 08:12:22;;;;;;;106.28;51.65;;;16.20;99.90;;;;;;5049538;28;20383;-43
2022/09/08 08:15:02;;;;;;;80.50;51.38;;;16.20;99.90;;;;;;5049302;28;20047;-42
2022/09/08 08:17:40;;;;;;;86.10;53.75;;;16.20;99.90;;;;;;5049799;28;20049;-44
2022/09/08 08:20:06;;;;;;;75.22;51.03;;;16.30;99.90;;;;;;5049743;28;20041;-42
2022/09/08 08:22:37;;;;;;;134.10;57.95;;;16.30;99.90;;;;;;5049501;28;20107;-42
2022/09/08 08:25:15;;;;;;;105.65;56.08;;;16.30;99.90;;;;;;5048899;28;20534;-43
2022/09/08 08:28:07;;;;;;;117.90;59.30;;;16.40;99.90;;;;;;5049135;28;20049;-42
2022/09/08 08:30:40;;;;;;;154.95;66.07;;;16.40;99.90;;;;;;5041454;28;20071;-42
2022/09/08 08:33:29;;;;;;;172.57;67.13;;;16.50;99.90;;;;;;5049113;28;20087;-43
2022/09/08 08:36:06;;;;;;;234.77;76.18;;;16.50;99.90;;;;;;5049013;28;20503;-42
2022/09/08 08:38:37;;;;;;;159.77;68.35;;;16.60;99.90;;;;;;5049313;28;20037;-42
2022/09/08 08:41:18;;;;;;;101.88;55.63;;;16.60;99.90;;;;;;5047794;28;20098;-43
2022/09/08 08:44:14;;;;;;;143.23;60.20;;;16.70;99.90;;;;;;5049017;28;20098;-42
2022/09/08 08:46:44;;;;;;;145.23;61.75;;;16.70;99.90;;;;;;5048155;28;20045;-42
2022/09/08 08:49:54;;;;;;;134.23;63.25;;;16.70;99.90;;;;;;5048594;28;20045;-42
2022/09/08 08:53:04;;;;;;;240.80;65.85;;;16.80;99.90;;;;;;5048523;28;20084;-43
2022/09/08 08:55:49;;;;;;;119.70;54.42;;;16.90;99.90;;;;;;5049207;28;20040;-43
2022/09/08 08:58:42;;;;;;;140.40;54.85;;;17.00;99.90;;;;;;5048772;28;20033;-43
2022/09/08 09:01:23;;;;;;;110.50;52.45;;;16.90;99.90;;;;;;5048627;28;20128;-43
2022/09/08 09:03:53;;;;;;;121.20;52.60;;;16.90;99.90;;;;;;5048891;28;20120;-43
2022/09/08 09:06:22;;;;;;;139.38;55.90;;;16.90;99.90;;;;;;5047415;28;20448;-42
2022/09/08 09:09:20;;;;;;;85.30;49.08;;;16.90;99.90;;;;;;5048438;28;20094;-43
2022/09/08 09:12:12;;;;;;;60.63;42.72;;;16.90;99.90;;;;;;5025096;28;20179;-43
2022/09/08 09:15:05;;;;;;;108.93;47.72;;;16.90;99.90;;;;;;5048397;28;20503;-42
2022/09/08 09:17:44;;;;;;;89.25;49.83;;;16.90;99.90;;;;;;5048254;28;20067;-42
2022/09/08 09:20:16;;;;;;;108.13;50.70;;;16.90;99.90;;;;;;5047977;28;20049;-42
2022/09/08 09:23:10;;;;;;;88.50;49.05;;;17.20;99.90;;;;;;5048393;28;20051;-43
2022/09/08 09:25:43;;;;;;;81.30;46.25;;;17.00;99.90;;;;;;5048025;28;20051;-42
2022/09/08 09:28:39;;;;;;;261.10;60.65;;;17.00;99.90;;;;;;5047884;28;20037;-42
2022/09/08 09:31:22;;;;;;;88.35;47.45;;;17.00;99.90;;;;;;5047924;28;20111;-42
2022/09/08 09:34:26;;;;;;;96.45;46.10;;;17.10;99.90;;;;;;5047743;28;20605;-42
2022/09/08 09:37:24;;;;;;;101.10;47.83;;;17.20;99.90;;;;;;5048379;28;20095;-42
2022/09/08 09:40:06;;;;;;;95.35;45.05;;;17.20;99.90;;;;;;5048071;28;20127;-42
2022/09/08 09:42:51;;;;;;;87.35;41.55;;;17.20;99.90;;;;;;5048332;28;20043;-43
2022/09/08 09:45:25;;;;;;;182.05;49.38;;;17.30;99.90;;;;;;5047982;28;20049;-42
2022/09/08 09:48:11;;;;;;;68.97;38.38;;;17.30;99.90;;;;;;5047913;28;20045;-42
2022/09/08 09:50:51;;;;;;;116.18;39.47;;;17.30;99.90;;;;;;5047960;28;20440;-42
2022/09/08 09:53:26;;;;;;;106.00;41.83;;;17.40;99.90;;;;;;5047764;28;20141;-43
2022/09/08 09:56:25;;;;;;;64.00;34.08;;;17.40;99.90;;;;;;5046603;28;20399;-42
2022/09/08 09:59:16;;;;;;;45.03;28.70;;;17.50;99.90;;;;;;5046019;28;20129;-42
2022/09/08 10:02:08;;;;;;;44.15;23.80;;;17.50;99.90;;;;;;5045862;28;20407;-44
2022/09/08 10:04:34;;;;;;;;;;;17.50;99.90;;;;;;5040090;28;20483;-42
2022/09/08 10:07:21;;;;;;;112.38;30.35;;;17.50;99.90;;;;;;5047735;28;19974;-43
2022/09/08 10:09:46;;;;;;;36.80;19.83;;;17.30;99.90;;;;;;5047167;28;20490;-43
2022/09/08 10:12:22;;;;;;;26.48;18.02;;;17.40;99.90;;;;;;5046612;28;20041;-42
2022/09/08 10:15:17;;;;;;;39.17;19.80;;;17.40;99.90;;;;;;5046324;28;20044;-42
2022/09/08 10:17:46;;;;;;;41.45;19.40;;;17.40;99.90;;;;;;5043872;28;20096;-43
2022/09/08 10:20:50;;;;;;;22.80;15.65;;;17.30;99.90;;;;;;5046368;28;20135;-43
2022/09/08 10:23:34;;;;;;;92.10;25.52;;;17.30;99.90;;;;;;5047274;28;20097;-43
2022/09/08 10:26:37;;;;;;;37.50;17.85;;;17.40;99.90;;;;;;5046736;28;20041;-43
2022/09/08 10:29:41;;;;;;;68.15;19.63;;;17.40;99.90;;;;;;5047153;28;20048;-42
2022/09/08 10:32:34;;;;;;;11.73;9.30;;;17.30;99.90;;;;;;5004905;28;20133;-42
2022/09/08 10:35:33;;;;;;;12.57;9.63;;;17.30;99.90;;;;;;5004389;28;20049;-43
2022/09/08 10:38:27;;;;;;;21.00;10.32;;;17.40;99.90;;;;;;5041403;28;20551;-42
2022/09/08 10:40:56;;;;;;;9.00;6.35;;;17.30;99.90;;;;;;5047113;28;20080;-42
2022/09/08 10:43:36;;;;;;;16.58;9.77;;;17.20;99.90;;;;;;5046261;28;20488;-43
2022/09/08 10:46:30;;;;;;;15.98;9.18;;;17.20;99.90;;;;;;5046980;28;20243;-42
2022/09/08 10:49:18;;;;;;;26.65;10.48;;;17.20;99.90;;;;;;5046511;28;20041;-43
2022/09/08 10:52:02;;;;;;;11.95;8.57;;;17.10;99.90;;;;;;5044916;28;20051;-43
2022/09/08 10:54:39;;;;;;;11.02;7.60;;;17.10;99.90;;;;;;5046180;28;20084;-42
2022/09/08 10:57:35;;;;;;;17.35;10.25;;;17.00;99.90;;;;;;5046696;28;20037;-43
2022/09/08 11:00:04;;;;;;;14.25;8.65;;;17.00;99.90;;;;;;5046297;28;20044;-43
2022/09/08 11:02:32;;;;;;;10.02;7.85;;;17.00;99.90;;;;;;5046648;28;20064;-42
2022/09/08 11:05:35;;;;;;;12.18;7.75;;;17.00;99.90;;;;;;5046773;28;20078;-44
2022/09/08 11:08:07;;;;;;;14.13;5.57;;;17.10;99.90;;;;;;5046726;28;20083;-43
2022/09/08 11:10:57;;;;;;;23.63;7.07;;;17.10;99.90;;;;;;5050133;28;20506;-43
2022/09/08 11:13:33;;;;;;;34.83;7.75;;;17.10;99.90;;;;;;5050154;28;20258;-42
2022/09/08 11:16:26;;;;;;;8.90;4.05;;;17.10;99.90;;;;;;5050547;28;20045;-42
2022/09/08 11:19:27;;;;;;;8.15;3.55;;;17.10;99.90;;;;;;5050028;28;20413;-42
2022/09/08 11:22:30;;;;;;;9.73;3.42;;;17.10;99.90;;;;;;5039662;28;20114;-42
2022/09/08 11:25:37;;;;;;;8.90;2.90;;;17.10;99.90;;;;;;5050008;28;20556;-43
2022/09/08 11:28:28;;;;;;;4.00;1.15;;;17.10;99.90;;;;;;5045027;28;20053;-42
2022/09/08 11:31:48;;;;;;;2.03;1.33;;;17.00;99.90;;;;;;5049865;28;20044;-43
2022/09/08 11:34:28;;;;;;;5.43;1.90;;;17.00;99.90;;;;;;5026605;28;20108;-43
2022/09/08 11:37:18;;;;;;;5.28;1.27;;;16.80;99.90;;;;;;5047344;28;20053;-43
2022/09/08 11:40:34;;;;;;;3.97;1.23;;;16.80;99.90;;;;;;5049954;28;20391;-43
2022/09/08 11:43:03;;;;;;;7.07;1.15;;;16.80;99.90;;;;;;5036743;28;20701;-43
2022/09/08 11:45:38;;;;;;;5.03;1.50;;;16.70;99.90;;;;;;5048902;28;20041;-43
2022/09/08 11:48:41;;;;;;;4.10;1.60;;;16.60;99.90;;;;;;5049464;28;20051;-43
2022/09/08 11:51:26;;;;;;;7.18;2.00;;;16.50;99.90;;;;;;5049318;28;20116;-43
2022/09/08 11:54:07;;;;;;;4.57;1.92;;;16.50;99.90;;;;;;5049080;28;20041;-43
2022/09/08 11:56:59;;;;;;;8.15;2.50;;;16.50;99.90;;;;;;5049131;28;20502;-43
2022/09/08 11:59:34;;;;;;;5.05;2.17;;;16.50;99.90;;;;;;5049618;28;20171;-42
2022/09/08 12:02:19;;;;;;;7.55;2.22;;;16.60;99.90;;;;;;5047425;28;20037;-47
2022/09/08 12:05:21;;;;;;;4.97;2.22;;;16.60;99.90;;;;;;5041622;28;20052;-52
2022/09/08 12:08:20;;;;;;;6.28;1.60;;;16.60;99.90;;;;;;5045938;28;20045;-42
2022/09/08 12:11:11;;;;;;;5.10;2.30;;;16.60;99.90;;;;;;5047492;28;20051;-43
2022/09/08 12:14:12;;;;;;;3.90;2.10;;;16.60;99.90;;;;;;5047189;28;20037;-42
2022/09/08 12:17:17;;;;;;;5.60;2.42;;;16.70;99.90;;;;;;5048621;28;20044;-50
2022/09/08 12:20:07;;;;;;;9.38;2.83;;;16.70;99.90;;;;;;5041382;28;20566;-43
2022/09/08 12:22:51;;;;;;;6.45;2.28;;;16.70;99.90;;;;;;5036517;28;20129;-42
2022/09/08 12:25:38;;;;;;;4.75;2.50;;;16.80;99.90;;;;;;5046760;28;20098;-43
2022/09/08 12:28:24;;;;;;;7.00;3.00;;;16.80;99.90;;;;;;5047834;28;20085;-43
2022/09/08 12:30:52;;;;;;;6.97;2.95;;;16.90;99.90;;;;;;5048105;28;20097;-42
2022/09/08 12:33:19;;;;;;;5.13;3.10;;;16.90;99.90;;;;;;5047700;28;20049;-51
2022/09/08 12:36:09;;;;;;;7.13;3.45;;;17.00;99.90;;;;;;5046977;28;20053;-54
2022/09/08 12:38:44;;;;;;;5.82;2.55;;;17.00;99.90;;;;;;5047623;28;20033;-57
2022/09/08 12:41:24;;;;;;;4.47;2.20;;;17.10;99.90;;;;;;5048364;28;20040;-44
2022/09/08 12:44:06;;;;;;;2.90;2.13;;;17.10;99.90;;;;;;5049518;28;20060;-44
2022/09/08 12:46:38;;;;;;;;;;;17.10;99.90;;;;;;5050183;28;20163;-50
2022/09/08 12:49:32;;;;;;;3.90;2.38;;;17.00;99.90;;;;;;5047531;28;19921;-44
2022/09/08 12:52:02;;;;;;;6.00;2.08;;;17.20;99.90;;;;;;5047631;28;20041;-43
2022/09/08 12:54:38;;;;;;;6.55;2.45;;;17.20;99.90;;;;;;5047167;28;20793;-43
2022/09/08 12:57:22;;;;;;;33.38;5.63;;;17.10;99.90;;;;;;5047826;28;20044;-41
2022/09/08 13:00:07;;;;;;;13.00;3.08;;;17.10;99.90;;;;;;5048460;28;20045;-41
2022/09/08 13:02:57;;;;;;;5.28;2.03;;;17.10;99.90;;;;;;5048354;28;20558;-42
2022/09/08 13:05:29;;;;;;;10.85;3.13;;;17.10;99.90;;;;;;5048801;28;20115;-41
2022/09/08 13:08:26;;;;;;;8.20;2.85;;;17.00;99.90;;;;;;5049299;28;20044;-41
2022/09/08 13:11:19;;;;;;;9.95;2.50;;;17.00;99.90;;;;;;5048449;28;20509;-42
2022/09/08 13:13:45;;;;;;;5.53;2.58;;;17.00;99.90;;;;;;5048667;28;20080;-43
2022/09/08 13:16:32;;;;;;;12.57;3.85;;;17.00;99.90;;;;;;5048700;28;20390;-41
2022/09/08 13:19:01;;;;;;;14.20;4.28;;;17.00;99.90;;;;;;5048323;28;20064;-41